sensor_id;sensor_type;location;lat;lon;timestamp;temperature;humidity
47576;DHT22;33304;52.456;13.328;2023-03-14T00:01:21;12.80;34.10
47576;DHT22;33304;52.456;13.328;2023-03-14T00:03:49;12.70;34.90
47576;DHT22;33304;52.456;13.328;2023-03-14T00:06:17;12.70;35.00
47576;DHT22;33304;52.456;13.328;2023-03-14T00:08:46;12.60;34.90
47576;DHT22;33304;52.456;13.328;2023-03-14T00:11:15;12.60;35.00
47576;DHT22;33304;52.456;13.328;2023-03-14T00:13:42;12.50;35.50
47576;DHT22;33304;52.456;13.328;2023-03-14T00:16:11;12.50;35.10
47576;DHT22;33304;52.456;13.328;2023-03-14T00:18:39;12.50;35.50
47576;DHT22;33304;52.456;13.328;2023-03-14T00:21:08;12.50;36.10
47576;DHT22;33304;52.456;13.328;2023-03-14T00:23:36;12.40;36.20
47576;DHT22;33304;52.456;13.328;2023-03-14T00:26:07;12.40;36.40
47576;DHT22;33304;52.456;13.328;2023-03-14T00:28:35;12.30;36.60
47576;DHT22;33304;52.456;13.328;2023-03-14T00:31:03;12.40;36.80
47576;DHT22;33304;52.456;13.328;2023-03-14T00:33:30;12.30;37.10
47576;DHT22;33304;52.456;13.328;2023-03-14T00:35:59;12.30;37.40
47576;DHT22;33304;52.456;13.328;2023-03-14T00:38:30;12.30;37.20
47576;DHT22;33304;52.456;13.328;2023-03-14T00:40:58;12.30;37.50
47576;DHT22;33304;52.456;13.328;2023-03-14T00:43:27;12.20;37.90
47576;DHT22;33304;52.456;13.328;2023-03-14T00:45:54;12.30;38.00
47576;DHT22;33304;52.456;13.328;2023-03-14T00:48:21;12.20;38.20
47576;DHT22;33304;52.456;13.328;2023-03-14T00:50:48;12.20;38.50
47576;DHT22;33304;52.456;13.328;2023-03-14T00:53:16;12.20;38.70
47576;DHT22;33304;52.456;13.328;2023-03-14T00:55:45;12.10;39.30
47576;DHT22;33304;52.456;13.328;2023-03-14T00:58:13;12.00;39.60
47576;DHT22;33304;52.456;13.328;2023-03-14T01:00:42;12.10;40.00
47576;DHT22;33304;52.456;13.328;2023-03-14T01:03:11;12.00;40.10
47576;DHT22;33304;52.456;13.328;2023-03-14T01:05:38;12.00;40.50
47576;DHT22;33304;52.456;13.328;2023-03-14T01:08:06;11.90;40.80
47576;DHT22;33304;52.456;13.328;2023-03-14T01:10:34;11.90;41.00
47576;DHT22;33304;52.456;13.328;2023-03-14T01:13:01;11.80;41.30
47576;DHT22;33304;52.456;13.328;2023-03-14T01:15:28;11.80;41.40
47576;DHT22;33304;52.456;13.328;2023-03-14T01:17:57;11.80;42.20
47576;DHT22;33304;52.456;13.328;2023-03-14T01:20:24;11.90;41.50
47576;DHT22;33304;52.456;13.328;2023-03-14T01:22:53;11.80;41.20
47576;DHT22;33304;52.456;13.328;2023-03-14T01:25:20;11.90;41.10
47576;DHT22;33304;52.456;13.328;2023-03-14T01:27:48;11.90;41.20
47576;DHT22;33304;52.456;13.328;2023-03-14T01:30:15;11.90;41.10
47576;DHT22;33304;52.456;13.328;2023-03-14T01:32:43;11.90;41.10
47576;DHT22;33304;52.456;13.328;2023-03-14T01:35:12;11.80;41.60
47576;DHT22;33304;52.456;13.328;2023-03-14T01:37:39;11.80;41.90
47576;DHT22;33304;52.456;13.328;2023-03-14T01:40:12;11.70;41.90
47576;DHT22;33304;52.456;13.328;2023-03-14T01:42:45;11.80;42.10
47576;DHT22;33304;52.456;13.328;2023-03-14T01:46:05;11.80;42.30
47576;DHT22;33304;52.456;13.328;2023-03-14T01:48:45;11.70;42.50
47576;DHT22;33304;52.456;13.328;2023-03-14T01:51:18;11.80;42.10
47576;DHT22;33304;52.456;13.328;2023-03-14T01:53:48;11.80;42.20
47576;DHT22;33304;52.456;13.328;2023-03-14T01:56:17;11.80;42.30
47576;DHT22;33304;52.456;13.328;2023-03-14T01:58:46;11.80;42.30
47576;DHT22;33304;52.456;13.328;2023-03-14T02:01:17;11.70;42.50
47576;DHT22;33304;52.456;13.328;2023-03-14T02:03:50;11.80;42.40
47576;DHT22;33304;52.456;13.328;2023-03-14T02:06:24;11.70;42.40
47576;DHT22;33304;52.456;13.328;2023-03-14T02:08:56;11.70;42.60
47576;DHT22;33304;52.456;13.328;2023-03-14T02:11:28;11.70;42.30
47576;DHT22;33304;52.456;13.328;2023-03-14T02:14:07;11.70;42.70
47576;DHT22;33304;52.456;13.328;2023-03-14T02:16:57;11.70;42.80
47576;DHT22;33304;52.456;13.328;2023-03-14T02:19:56;11.70;42.60
47576;DHT22;33304;52.456;13.328;2023-03-14T02:22:37;11.70;42.30
47576;DHT22;33304;52.456;13.328;2023-03-14T02:25:10;11.60;42.60
47576;DHT22;33304;52.456;13.328;2023-03-14T02:27:40;11.70;42.30
47576;DHT22;33304;52.456;13.328;2023-03-14T02:30:11;11.60;42.20
47576;DHT22;33304;52.456;13.328;2023-03-14T02:32:43;11.60;42.40
47576;DHT22;33304;52.456;13.328;2023-03-14T02:35:17;11.60;42.10
47576;DHT22;33304;52.456;13.328;2023-03-14T02:37:47;11.60;42.20
47576;DHT22;33304;52.456;13.328;2023-03-14T02:40:15;11.60;42.30
47576;DHT22;33304;52.456;13.328;2023-03-14T02:42:44;11.60;42.20
47576;DHT22;33304;52.456;13.328;2023-03-14T02:45:40;11.60;42.30
47576;DHT22;33304;52.456;13.328;2023-03-14T02:48:13;11.60;42.30
47576;DHT22;33304;52.456;13.328;2023-03-14T02:50:42;11.60;42.20
47576;DHT22;33304;52.456;13.328;2023-03-14T02:53:12;11.60;42.00
47576;DHT22;33304;52.456;13.328;2023-03-14T02:55:44;11.60;42.00
47576;DHT22;33304;52.456;13.328;2023-03-14T02:58:13;11.60;41.90
47576;DHT22;33304;52.456;13.328;2023-03-14T03:00:41;11.70;41.30
47576;DHT22;33304;52.456;13.328;2023-03-14T03:03:10;11.60;41.40
47576;DHT22;33304;52.456;13.328;2023-03-14T03:05:38;11.60;41.50
47576;DHT22;33304;52.456;13.328;2023-03-14T03:08:06;11.60;41.50
47576;DHT22;33304;52.456;13.328;2023-03-14T03:10:33;11.60;41.50
47576;DHT22;33304;52.456;13.328;2023-03-14T03:13:00;11.60;41.20
47576;DHT22;33304;52.456;13.328;2023-03-14T03:15:29;11.50;41.50
47576;DHT22;33304;52.456;13.328;2023-03-14T03:17:57;11.60;41.20
47576;DHT22;33304;52.456;13.328;2023-03-14T03:20:24;11.60;41.30
47576;DHT22;33304;52.456;13.328;2023-03-14T03:22:51;11.60;40.80
47576;DHT22;33304;52.456;13.328;2023-03-14T03:25:19;11.50;40.80
47576;DHT22;33304;52.456;13.328;2023-03-14T03:27:46;11.50;41.10
47576;DHT22;33304;52.456;13.328;2023-03-14T03:30:17;11.50;41.20
47576;DHT22;33304;52.456;13.328;2023-03-14T03:32:46;11.50;41.30
47576;DHT22;33304;52.456;13.328;2023-03-14T03:35:14;11.50;41.10
47576;DHT22;33304;52.456;13.328;2023-03-14T03:37:41;11.40;41.10
47576;DHT22;33304;52.456;13.328;2023-03-14T03:40:09;11.40;41.10
47576;DHT22;33304;52.456;13.328;2023-03-14T03:42:37;11.40;41.10
47576;DHT22;33304;52.456;13.328;2023-03-14T03:45:08;11.40;41.40
47576;DHT22;33304;52.456;13.328;2023-03-14T03:47:39;11.40;41.40
47576;DHT22;33304;52.456;13.328;2023-03-14T03:50:09;11.40;41.10
47576;DHT22;33304;52.456;13.328;2023-03-14T03:52:37;11.50;41.20
47576;DHT22;33304;52.456;13.328;2023-03-14T03:55:04;11.40;40.90
47576;DHT22;33304;52.456;13.328;2023-03-14T03:57:31;11.40;41.00
47576;DHT22;33304;52.456;13.328;2023-03-14T03:59:58;11.30;41.10
47576;DHT22;33304;52.456;13.328;2023-03-14T04:02:27;11.30;41.10
47576;DHT22;33304;52.456;13.328;2023-03-14T04:04:54;11.30;40.90
47576;DHT22;33304;52.456;13.328;2023-03-14T04:07:23;11.30;41.10
47576;DHT22;33304;52.456;13.328;2023-03-14T04:09:51;11.30;40.90
47576;DHT22;33304;52.456;13.328;2023-03-14T04:12:24;11.40;40.80
47576;DHT22;33304;52.456;13.328;2023-03-14T04:14:59;11.30;40.90
47576;DHT22;33304;52.456;13.328;2023-03-14T04:17:26;11.30;40.70
47576;DHT22;33304;52.456;13.328;2023-03-14T04:19:53;11.20;40.90
47576;DHT22;33304;52.456;13.328;2023-03-14T04:22:24;11.20;40.70
47576;DHT22;33304;52.456;13.328;2023-03-14T04:24:52;11.20;40.70
47576;DHT22;33304;52.456;13.328;2023-03-14T04:27:21;11.30;40.10
47576;DHT22;33304;52.456;13.328;2023-03-14T04:29:48;11.30;40.40
47576;DHT22;33304;52.456;13.328;2023-03-14T04:32:20;11.20;40.50
47576;DHT22;33304;52.456;13.328;2023-03-14T04:34:47;11.10;40.50
47576;DHT22;33304;52.456;13.328;2023-03-14T04:37:14;11.20;41.30
47576;DHT22;33304;52.456;13.328;2023-03-14T04:39:45;11.20;40.70
47576;DHT22;33304;52.456;13.328;2023-03-14T04:42:21;11.20;40.20
47576;DHT22;33304;52.456;13.328;2023-03-14T04:44:48;11.20;40.00
47576;DHT22;33304;52.456;13.328;2023-03-14T04:47:17;11.10;40.10
47576;DHT22;33304;52.456;13.328;2023-03-14T04:49:46;11.10;40.50
47576;DHT22;33304;52.456;13.328;2023-03-14T04:52:15;11.10;40.20
47576;DHT22;33304;52.456;13.328;2023-03-14T04:54:42;11.10;40.10
47576;DHT22;33304;52.456;13.328;2023-03-14T04:57:11;11.20;39.80
47576;DHT22;33304;52.456;13.328;2023-03-14T04:59:39;11.10;40.10
47576;DHT22;33304;52.456;13.328;2023-03-14T05:02:26;11.10;40.20
47576;DHT22;33304;52.456;13.328;2023-03-14T05:05:20;11.10;40.10
47576;DHT22;33304;52.456;13.328;2023-03-14T05:08:13;11.00;40.00
47576;DHT22;33304;52.456;13.328;2023-03-14T05:10:54;11.00;39.80
47576;DHT22;33304;52.456;13.328;2023-03-14T05:13:43;11.10;39.70
47576;DHT22;33304;52.456;13.328;2023-03-14T05:16:25;11.00;39.60
47576;DHT22;33304;52.456;13.328;2023-03-14T05:19:00;11.00;39.50
47576;DHT22;33304;52.456;13.328;2023-03-14T05:21:42;11.10;39.10
47576;DHT22;33304;52.456;13.328;2023-03-14T05:24:19;11.10;39.20
47576;DHT22;33304;52.456;13.328;2023-03-14T05:27:09;11.10;38.80
47576;DHT22;33304;52.456;13.328;2023-03-14T05:29:44;11.00;38.50
47576;DHT22;33304;52.456;13.328;2023-03-14T05:32:22;11.10;38.40
47576;DHT22;33304;52.456;13.328;2023-03-14T05:34:56;11.10;38.40
47576;DHT22;33304;52.456;13.328;2023-03-14T05:37:38;11.10;38.00
47576;DHT22;33304;52.456;13.328;2023-03-14T05:40:17;11.20;37.40
47576;DHT22;33304;52.456;13.328;2023-03-14T05:42:59;11.20;37.30
47576;DHT22;33304;52.456;13.328;2023-03-14T05:45:47;11.10;37.30
47576;DHT22;33304;52.456;13.328;2023-03-14T05:48:27;11.10;37.50
47576;DHT22;33304;52.456;13.328;2023-03-14T05:51:16;11.10;36.90
47576;DHT22;33304;52.456;13.328;2023-03-14T05:54:01;11.10;36.60
47576;DHT22;33304;52.456;13.328;2023-03-14T05:56:57;11.10;36.50
47576;DHT22;33304;52.456;13.328;2023-03-14T05:59:36;11.10;36.20
47576;DHT22;33304;52.456;13.328;2023-03-14T06:02:11;11.10;35.90
47576;DHT22;33304;52.456;13.328;2023-03-14T06:04:48;11.10;35.50
47576;DHT22;33304;52.456;13.328;2023-03-14T06:07:16;11.10;35.00
47576;DHT22;33304;52.456;13.328;2023-03-14T06:09:44;11.20;35.00
47576;DHT22;33304;52.456;13.328;2023-03-14T06:12:11;11.20;34.40
47576;DHT22;33304;52.456;13.328;2023-03-14T06:14:42;11.30;33.90
47576;DHT22;33304;52.456;13.328;2023-03-14T06:17:10;11.20;33.70
47576;DHT22;33304;52.456;13.328;2023-03-14T06:19:46;11.20;33.70
47576;DHT22;33304;52.456;13.328;2023-03-14T06:22:14;11.30;32.70
47576;DHT22;33304;52.456;13.328;2023-03-14T06:24:41;11.40;32.80
47576;DHT22;33304;52.456;13.328;2023-03-14T06:27:08;11.30;32.70
47576;DHT22;33304;52.456;13.328;2023-03-14T06:29:35;11.40;32.80
47576;DHT22;33304;52.456;13.328;2023-03-14T06:32:03;11.40;32.80
47576;DHT22;33304;52.456;13.328;2023-03-14T06:34:32;11.50;32.90
47576;DHT22;33304;52.456;13.328;2023-03-14T06:36:59;11.40;32.80
47576;DHT22;33304;52.456;13.328;2023-03-14T06:39:26;11.50;32.40
47576;DHT22;33304;52.456;13.328;2023-03-14T06:42:02;11.50;32.50
47576;DHT22;33304;52.456;13.328;2023-03-14T06:44:29;11.50;32.80
47576;DHT22;33304;52.456;13.328;2023-03-14T06:46:56;11.60;32.10
47576;DHT22;33304;52.456;13.328;2023-03-14T06:49:24;11.60;31.20
47576;DHT22;33304;52.456;13.328;2023-03-14T06:51:55;11.70;31.60
47576;DHT22;33304;52.456;13.328;2023-03-14T06:54:23;11.60;30.90
47576;DHT22;33304;52.456;13.328;2023-03-14T06:56:50;11.70;31.00
47576;DHT22;33304;52.456;13.328;2023-03-14T06:59:17;11.70;30.60
47576;DHT22;33304;52.456;13.328;2023-03-14T07:01:47;11.70;31.00
47576;DHT22;33304;52.456;13.328;2023-03-14T07:04:16;11.80;30.00
47576;DHT22;33304;52.456;13.328;2023-03-14T07:06:47;11.80;30.00
47576;DHT22;33304;52.456;13.328;2023-03-14T07:09:15;11.80;30.00
47576;DHT22;33304;52.456;13.328;2023-03-14T07:11:49;11.80;30.20
47576;DHT22;33304;52.456;13.328;2023-03-14T07:14:17;11.80;30.30
47576;DHT22;33304;52.456;13.328;2023-03-14T07:16:44;11.70;30.60
47576;DHT22;33304;52.456;13.328;2023-03-14T07:19:12;11.80;30.40
47576;DHT22;33304;52.456;13.328;2023-03-14T07:21:39;11.70;30.20
47576;DHT22;33304;52.456;13.328;2023-03-14T07:24:09;11.70;30.30
47576;DHT22;33304;52.456;13.328;2023-03-14T07:26:38;11.70;30.40
47576;DHT22;33304;52.456;13.328;2023-03-14T07:29:06;11.70;30.50
47576;DHT22;33304;52.456;13.328;2023-03-14T07:31:33;11.70;30.40
47576;DHT22;33304;52.456;13.328;2023-03-14T07:34:02;11.80;30.60
47576;DHT22;33304;52.456;13.328;2023-03-14T07:36:32;11.80;30.10
47576;DHT22;33304;52.456;13.328;2023-03-14T07:39:00;11.90;30.10
47576;DHT22;33304;52.456;13.328;2023-03-14T07:41:45;11.80;29.90
47576;DHT22;33304;52.456;13.328;2023-03-14T07:44:32;11.80;30.10
47576;DHT22;33304;52.456;13.328;2023-03-14T07:47:00;11.80;30.20
47576;DHT22;33304;52.456;13.328;2023-03-14T07:49:27;11.80;30.00
47576;DHT22;33304;52.456;13.328;2023-03-14T07:51:54;11.80;30.60
47576;DHT22;33304;52.456;13.328;2023-03-14T07:54:21;11.80;30.00
47576;DHT22;33304;52.456;13.328;2023-03-14T07:56:50;11.90;30.00
47576;DHT22;33304;52.456;13.328;2023-03-14T07:59:18;12.00;29.80
47576;DHT22;33304;52.456;13.328;2023-03-14T08:01:45;12.00;29.40
47576;DHT22;33304;52.456;13.328;2023-03-14T08:04:12;12.20;29.30
47576;DHT22;33304;52.456;13.328;2023-03-14T08:06:39;12.20;29.50
47576;DHT22;33304;52.456;13.328;2023-03-14T08:09:06;12.20;29.10
47576;DHT22;33304;52.456;13.328;2023-03-14T08:11:34;12.20;29.20
47576;DHT22;33304;52.456;13.328;2023-03-14T08:14:02;12.20;29.10
47576;DHT22;33304;52.456;13.328;2023-03-14T08:16:29;12.10;29.10
47576;DHT22;33304;52.456;13.328;2023-03-14T08:18:57;12.20;28.90
47576;DHT22;33304;52.456;13.328;2023-03-14T08:21:24;12.30;28.90
47576;DHT22;33304;52.456;13.328;2023-03-14T08:23:51;12.30;28.70
47576;DHT22;33304;52.456;13.328;2023-03-14T08:26:18;12.40;28.40
47576;DHT22;33304;52.456;13.328;2023-03-14T08:28:45;12.30;28.30
47576;DHT22;33304;52.456;13.328;2023-03-14T08:31:13;12.40;28.40
47576;DHT22;33304;52.456;13.328;2023-03-14T08:33:40;12.30;28.30
47576;DHT22;33304;52.456;13.328;2023-03-14T08:36:08;12.40;28.40
47576;DHT22;33304;52.456;13.328;2023-03-14T08:38:35;12.40;28.40
47576;DHT22;33304;52.456;13.328;2023-03-14T08:41:03;12.40;28.10
47576;DHT22;33304;52.456;13.328;2023-03-14T08:43:30;12.60;28.00
47576;DHT22;33304;52.456;13.328;2023-03-14T08:45:58;12.50;27.60
47576;DHT22;33304;52.456;13.328;2023-03-14T08:48:27;12.60;27.50
47576;DHT22;33304;52.456;13.328;2023-03-14T08:50:55;12.60;27.30
47576;DHT22;33304;52.456;13.328;2023-03-14T08:53:22;12.60;27.00
47576;DHT22;33304;52.456;13.328;2023-03-14T08:55:52;12.60;27.30
47576;DHT22;33304;52.456;13.328;2023-03-14T08:58:20;12.60;26.90
47576;DHT22;33304;52.456;13.328;2023-03-14T09:00:48;12.70;26.90
47576;DHT22;33304;52.456;13.328;2023-03-14T09:03:15;12.60;26.80
47576;DHT22;33304;52.456;13.328;2023-03-14T09:05:44;12.70;27.00
47576;DHT22;33304;52.456;13.328;2023-03-14T09:08:11;12.70;26.70
47576;DHT22;33304;52.456;13.328;2023-03-14T09:10:38;12.80;26.60
47576;DHT22;33304;52.456;13.328;2023-03-14T09:13:05;12.90;26.20
47576;DHT22;33304;52.456;13.328;2023-03-14T09:15:32;12.80;26.30
47576;DHT22;33304;52.456;13.328;2023-03-14T09:17:59;12.90;26.30
47576;DHT22;33304;52.456;13.328;2023-03-14T09:20:26;13.10;25.60
47576;DHT22;33304;52.456;13.328;2023-03-14T09:22:55;13.20;24.60
47576;DHT22;33304;52.456;13.328;2023-03-14T09:25:22;13.30;24.70
47576;DHT22;33304;52.456;13.328;2023-03-14T09:27:49;13.40;24.40
47576;DHT22;33304;52.456;13.328;2023-03-14T09:30:16;13.50;24.40
47576;DHT22;33304;52.456;13.328;2023-03-14T09:32:43;13.70;24.60
47576;DHT22;33304;52.456;13.328;2023-03-14T09:35:10;13.70;24.00
47576;DHT22;33304;52.456;13.328;2023-03-14T09:37:37;13.80;22.70
47576;DHT22;33304;52.456;13.328;2023-03-14T09:40:09;14.00;23.20
47576;DHT22;33304;52.456;13.328;2023-03-14T09:42:39;14.00;22.60
47576;DHT22;33304;52.456;13.328;2023-03-14T09:45:12;14.00;22.50
47576;DHT22;33304;52.456;13.328;2023-03-14T09:47:40;13.80;22.10
47576;DHT22;33304;52.456;13.328;2023-03-14T09:50:13;13.80;22.20
47576;DHT22;33304;52.456;13.328;2023-03-14T09:52:42;13.60;22.10
47576;DHT22;33304;52.456;13.328;2023-03-14T09:55:15;13.50;22.40
47576;DHT22;33304;52.456;13.328;2023-03-14T09:57:43;13.40;22.30
47576;DHT22;33304;52.456;13.328;2023-03-14T10:00:16;13.30;22.50
47576;DHT22;33304;52.456;13.328;2023-03-14T10:02:49;13.40;22.70
47576;DHT22;33304;52.456;13.328;2023-03-14T10:05:20;13.40;22.50
47576;DHT22;33304;52.456;13.328;2023-03-14T10:07:47;13.60;22.00
47576;DHT22;33304;52.456;13.328;2023-03-14T10:10:18;13.50;21.60
47576;DHT22;33304;52.456;13.328;2023-03-14T10:12:47;13.40;21.60
47576;DHT22;33304;52.456;13.328;2023-03-14T10:15:27;13.50;21.40
47576;DHT22;33304;52.456;13.328;2023-03-14T10:17:59;13.60;21.00
47576;DHT22;33304;52.456;13.328;2023-03-14T10:20:30;13.60;21.00
47576;DHT22;33304;52.456;13.328;2023-03-14T10:23:00;13.60;20.80
47576;DHT22;33304;52.456;13.328;2023-03-14T10:25:30;13.60;20.90
47576;DHT22;33304;52.456;13.328;2023-03-14T10:27:58;13.60;20.60
47576;DHT22;33304;52.456;13.328;2023-03-14T10:30:39;13.50;20.80
47576;DHT22;33304;52.456;13.328;2023-03-14T10:33:11;13.50;20.70
47576;DHT22;33304;52.456;13.328;2023-03-14T10:35:45;13.60;19.70
47576;DHT22;33304;52.456;13.328;2023-03-14T10:38:13;13.60;19.90
47576;DHT22;33304;52.456;13.328;2023-03-14T10:40:47;13.50;19.80
47576;DHT22;33304;52.456;13.328;2023-03-14T10:43:19;13.60;19.70
47576;DHT22;33304;52.456;13.328;2023-03-14T10:45:52;13.50;19.90
47576;DHT22;33304;52.456;13.328;2023-03-14T10:48:30;13.50;19.70
47576;DHT22;33304;52.456;13.328;2023-03-14T10:51:02;13.50;19.90
47576;DHT22;33304;52.456;13.328;2023-03-14T10:53:38;13.50;19.70
47576;DHT22;33304;52.456;13.328;2023-03-14T10:56:11;13.50;20.20
47576;DHT22;33304;52.456;13.328;2023-03-14T10:58:41;13.50;20.30
47576;DHT22;33304;52.456;13.328;2023-03-14T11:01:35;13.50;19.90
47576;DHT22;33304;52.456;13.328;2023-03-14T11:04:14;13.70;19.60
47576;DHT22;33304;52.456;13.328;2023-03-14T11:06:45;13.60;20.10
47576;DHT22;33304;52.456;13.328;2023-03-14T11:09:21;13.60;20.00
47576;DHT22;33304;52.456;13.328;2023-03-14T11:11:51;13.60;20.10
47576;DHT22;33304;52.456;13.328;2023-03-14T11:14:26;13.70;19.90
47576;DHT22;33304;52.456;13.328;2023-03-14T11:17:00;13.70;19.90
47576;DHT22;33304;52.456;13.328;2023-03-14T11:19:41;13.60;20.20
47576;DHT22;33304;52.456;13.328;2023-03-14T11:22:17;13.60;20.50
47576;DHT22;33304;52.456;13.328;2023-03-14T11:25:06;13.60;20.50
47576;DHT22;33304;52.456;13.328;2023-03-14T11:27:43;13.60;20.90
47576;DHT22;33304;52.456;13.328;2023-03-14T11:30:18;13.70;20.70
47576;DHT22;33304;52.456;13.328;2023-03-14T11:32:50;13.70;20.80
47576;DHT22;33304;52.456;13.328;2023-03-14T11:35:24;13.70;21.00
47576;DHT22;33304;52.456;13.328;2023-03-14T11:37:55;13.80;20.90
47576;DHT22;33304;52.456;13.328;2023-03-14T11:40:27;13.60;21.40
47576;DHT22;33304;52.456;13.328;2023-03-14T11:43:00;13.50;22.60
47576;DHT22;33304;52.456;13.328;2023-03-14T11:45:32;13.50;23.70
47576;DHT22;33304;52.456;13.328;2023-03-14T11:48:14;13.30;23.60
47576;DHT22;33304;52.456;13.328;2023-03-14T11:50:43;13.40;23.70
47576;DHT22;33304;52.456;13.328;2023-03-14T11:53:14;13.40;23.60
47576;DHT22;33304;52.456;13.328;2023-03-14T11:55:43;13.30;24.30
47576;DHT22;33304;52.456;13.328;2023-03-14T11:58:14;13.20;24.20
47576;DHT22;33304;52.456;13.328;2023-03-14T12:00:43;13.20;24.30
47576;DHT22;33304;52.456;13.328;2023-03-14T12:03:14;13.20;24.20
47576;DHT22;33304;52.456;13.328;2023-03-14T12:05:48;13.20;24.20
47576;DHT22;33304;52.456;13.328;2023-03-14T12:08:39;13.30;24.30
47576;DHT22;33304;52.456;13.328;2023-03-14T12:11:12;13.20;24.30
47576;DHT22;33304;52.456;13.328;2023-03-14T12:13:46;13.30;24.30
47576;DHT22;33304;52.456;13.328;2023-03-14T12:16:32;13.40;24.40
47576;DHT22;33304;52.456;13.328;2023-03-14T12:22:24;13.50;24.50
47576;DHT22;33304;52.456;13.328;2023-03-14T12:24:57;13.70;24.60
47576;DHT22;33304;52.456;13.328;2023-03-14T12:27:46;13.60;24.50
47576;DHT22;33304;52.456;13.328;2023-03-14T12:30:25;13.60;24.60
47576;DHT22;33304;52.456;13.328;2023-03-14T12:33:19;13.50;24.40
47576;DHT22;33304;52.456;13.328;2023-03-14T12:35:49;13.40;24.40
47576;DHT22;33304;52.456;13.328;2023-03-14T12:38:23;13.20;26.40
47576;DHT22;33304;52.456;13.328;2023-03-14T12:40:58;13.20;27.70
47576;DHT22;33304;52.456;13.328;2023-03-14T12:43:29;13.20;28.60
47576;DHT22;33304;52.456;13.328;2023-03-14T12:46:15;13.20;29.20
47576;DHT22;33304;52.456;13.328;2023-03-14T12:48:44;13.10;28.50
47576;DHT22;33304;52.456;13.328;2023-03-14T12:51:13;13.20;26.70
47576;DHT22;33304;52.456;13.328;2023-03-14T12:54:12;13.20;26.80
47576;DHT22;33304;52.456;13.328;2023-03-14T12:56:51;13.40;25.80
47576;DHT22;33304;52.456;13.328;2023-03-14T12:59:32;13.40;26.30
47576;DHT22;33304;52.456;13.328;2023-03-14T13:02:14;13.30;25.50
47576;DHT22;33304;52.456;13.328;2023-03-14T13:04:47;13.00;27.50
47576;DHT22;33304;52.456;13.328;2023-03-14T13:07:31;12.60;31.70
47576;DHT22;33304;52.456;13.328;2023-03-14T13:10:05;12.10;36.20
47576;DHT22;33304;52.456;13.328;2023-03-14T13:12:48;11.70;40.70
47576;DHT22;33304;52.456;13.328;2023-03-14T13:15:20;11.50;44.60
47576;DHT22;33304;52.456;13.328;2023-03-14T13:17:51;11.30;47.20
47576;DHT22;33304;52.456;13.328;2023-03-14T13:20:24;11.30;50.70
47576;DHT22;33304;52.456;13.328;2023-03-14T13:22:53;11.30;51.40
47576;DHT22;33304;52.456;13.328;2023-03-14T13:25:20;11.40;51.70
47576;DHT22;33304;52.456;13.328;2023-03-14T13:27:49;11.70;52.10
47576;DHT22;33304;52.456;13.328;2023-03-14T13:30:22;11.80;51.40
47576;DHT22;33304;52.456;13.328;2023-03-14T13:32:52;12.10;55.10
47576;DHT22;33304;52.456;13.328;2023-03-14T13:35:22;12.60;49.10
47576;DHT22;33304;52.456;13.328;2023-03-14T13:37:55;13.50;44.00
47576;DHT22;33304;52.456;13.328;2023-03-14T13:40:30;14.30;37.90
47576;DHT22;33304;52.456;13.328;2023-03-14T13:43:14;14.70;30.80
47576;DHT22;33304;52.456;13.328;2023-03-14T13:45:50;14.50;30.40
47576;DHT22;33304;52.456;13.328;2023-03-14T13:48:21;14.20;29.70
47576;DHT22;33304;52.456;13.328;2023-03-14T13:50:51;14.20;28.60
47576;DHT22;33304;52.456;13.328;2023-03-14T13:53:22;14.10;27.00
47576;DHT22;33304;52.456;13.328;2023-03-14T13:55:50;14.20;27.10
47576;DHT22;33304;52.456;13.328;2023-03-14T13:58:28;14.50;26.30
47576;DHT22;33304;52.456;13.328;2023-03-14T14:00:59;15.00;25.00
47576;DHT22;33304;52.456;13.328;2023-03-14T14:03:31;15.30;23.50
47576;DHT22;33304;52.456;13.328;2023-03-14T14:05:59;15.20;24.50
47576;DHT22;33304;52.456;13.328;2023-03-14T14:08:26;15.20;23.40
47576;DHT22;33304;52.456;13.328;2023-03-14T14:10:58;15.10;23.80
47576;DHT22;33304;52.456;13.328;2023-03-14T14:13:30;14.90;23.70
47576;DHT22;33304;52.456;13.328;2023-03-14T14:16:00;14.60;24.30
47576;DHT22;33304;52.456;13.328;2023-03-14T14:18:33;15.10;24.00
47576;DHT22;33304;52.456;13.328;2023-03-14T14:21:02;15.30;23.90
47576;DHT22;33304;52.456;13.328;2023-03-14T14:23:30;15.30;23.10
47576;DHT22;33304;52.456;13.328;2023-03-14T14:25:58;14.60;24.60
47576;DHT22;33304;52.456;13.328;2023-03-14T14:28:27;14.20;24.90
47576;DHT22;33304;52.456;13.328;2023-03-14T14:31:05;14.10;24.90
47576;DHT22;33304;52.456;13.328;2023-03-14T14:33:42;13.90;24.80
47576;DHT22;33304;52.456;13.328;2023-03-14T14:36:22;14.40;24.20
47576;DHT22;33304;52.456;13.328;2023-03-14T14:38:51;14.60;23.10
47576;DHT22;33304;52.456;13.328;2023-03-14T14:41:19;14.50;23.10
47576;DHT22;33304;52.456;13.328;2023-03-14T14:43:46;14.50;22.80
47576;DHT22;33304;52.456;13.328;2023-03-14T14:46:17;14.30;23.70
47576;DHT22;33304;52.456;13.328;2023-03-14T14:48:47;14.40;23.20
47576;DHT22;33304;52.456;13.328;2023-03-14T14:51:26;14.20;24.30
47576;DHT22;33304;52.456;13.328;2023-03-14T14:54:10;14.00;24.80
47576;DHT22;33304;52.456;13.328;2023-03-14T14:56:38;14.10;24.90
47576;DHT22;33304;52.456;13.328;2023-03-14T14:59:07;14.10;24.90
47576;DHT22;33304;52.456;13.328;2023-03-14T15:01:45;14.00;24.20
47576;DHT22;33304;52.456;13.328;2023-03-14T15:04:15;13.80;24.70
47576;DHT22;33304;52.456;13.328;2023-03-14T15:06:43;13.90;24.70
47576;DHT22;33304;52.456;13.328;2023-03-14T15:09:11;13.80;24.70
47576;DHT22;33304;52.456;13.328;2023-03-14T15:11:38;13.70;24.60
47576;DHT22;33304;52.456;13.328;2023-03-14T15:14:05;13.60;25.50
47576;DHT22;33304;52.456;13.328;2023-03-14T15:16:33;13.30;31.40
47576;DHT22;33304;52.456;13.328;2023-03-14T15:19:02;12.70;36.30
47576;DHT22;33304;52.456;13.328;2023-03-14T15:21:32;11.30;33.60
47576;DHT22;33304;52.456;13.328;2023-03-14T15:23:59;9.80;42.40
47576;DHT22;33304;52.456;13.328;2023-03-14T15:26:27;8.90;47.30
47576;DHT22;33304;52.456;13.328;2023-03-14T15:28:54;8.50;52.50
47576;DHT22;33304;52.456;13.328;2023-03-14T15:31:22;8.30;56.70
47576;DHT22;33304;52.456;13.328;2023-03-14T15:33:49;8.20;59.80
47576;DHT22;33304;52.456;13.328;2023-03-14T15:36:22;7.70;55.30
47576;DHT22;33304;52.456;13.328;2023-03-14T15:38:51;7.10;54.70
47576;DHT22;33304;52.456;13.328;2023-03-14T15:41:19;7.00;58.50
47576;DHT22;33304;52.456;13.328;2023-03-14T15:43:56;6.90;60.30
47576;DHT22;33304;52.456;13.328;2023-03-14T15:46:23;6.80;62.30
47576;DHT22;33304;52.456;13.328;2023-03-14T15:48:51;6.50;60.80